Time;durP1;ratioP1;P1;durP2;ratioP2;P2;SDS_P1;SDS_P2;PMS_P1;PMS_P2;Temp;Humidity;BMP_temperature;BMP_pressure;BME280_temperature;BME280_humidity;BME280_pressure;Samples;Min_cycle;Max_cycle;Signal;HPM_P1;HPM_P2
2024/04/14 03:46:33;;;;;;;6.90;2.22;;;;;;;16.11;54.81;100152.66;5276246;27;20006;-88
2024/04/14 03:48:59;;;;;;;8.63;2.67;;;;;;;16.05;54.59;100132.72;5248581;27;20021;-88
2024/04/14 03:51:28;;;;;;;7.15;1.88;;;;;;;15.98;55.27;100134.13;5248759;27;20478;-88
2024/04/14 03:53:55;;;;;;;5.82;2.08;;;;;;;15.97;55.29;100146.56;5278186;27;20014;-88
2024/04/14 03:56:22;;;;;;;8.90;2.10;;;;;;;15.95;55.32;100147.63;5249175;27;20002;-88
2024/04/14 03:58:51;;;;;;;6.88;2.42;;;;;;;15.93;55.76;100153.03;5278623;27;20006;-88
2024/04/14 04:01:18;;;;;;;11.50;2.58;;;;;;;15.93;55.80;100161.00;5264173;27;20014;-88
2024/04/14 04:03:45;;;;;;;9.18;2.10;;;;;;;15.94;55.89;100149.44;5248969;27;20248;-88
2024/04/14 04:06:12;;;;;;;7.82;1.90;;;;;;;15.96;56.14;100159.97;5277740;27;20006;-88
2024/04/14 04:08:39;;;;;;;7.72;2.38;;;;;;;15.97;56.05;100159.84;5248355;27;20003;-88
2024/04/14 04:11:05;;;;;;;5.90;1.80;;;;;;;15.98;55.72;100161.53;5248382;27;20450;-88
2024/04/14 04:13:33;;;;;;;8.85;2.70;;;;;;;15.97;55.74;100164.31;5248917;27;20337;-88
2024/04/14 04:16:05;;;;;;;6.45;2.45;;;;;;;15.96;56.44;100171.41;5248623;27;20441;-88
2024/04/14 04:18:33;;;;;;;7.95;2.20;;;;;;;15.97;55.72;100165.16;5276288;27;20447;-88
2024/04/14 04:21:05;;;;;;;5.32;2.00;;;;;;;15.95;55.52;100169.72;5248032;27;20044;-87
2024/04/14 04:23:32;;;;;;;5.65;1.38;;;;;;;15.93;54.72;100170.75;5248022;27;20002;-88
2024/04/14 04:26:01;;;;;;;5.80;1.67;;;;;;;15.86;54.42;100163.22;5247900;27;20098;-88
2024/04/14 04:28:28;;;;;;;7.15;1.60;;;;;;;15.82;54.00;100168.88;5276424;27;20017;-88
2024/04/14 04:31:14;;;;;;;3.55;1.20;;;;;;;15.72;53.27;100174.88;5247976;27;20855;-87
2024/04/14 04:33:41;;;;;;;6.30;1.27;;;;;;;15.71;53.39;100181.13;5278044;27;20002;-88
2024/04/14 04:36:11;;;;;;;4.80;1.58;;;;;;;15.65;53.16;100184.22;5248351;27;20002;-88
2024/04/14 04:38:42;;;;;;;4.78;1.13;;;;;;;15.59;52.89;100189.97;5277509;27;20470;-88
2024/04/14 04:41:10;;;;;;;3.72;1.13;;;;;;;15.56;52.82;100190.19;5247808;27;20006;-88
2024/04/14 04:43:42;;;;;;;4.93;1.35;;;;;;;15.53;52.78;100195.69;5277781;27;20006;-88
2024/04/14 04:46:09;;;;;;;4.05;1.27;;;;;;;15.49;52.55;100187.97;5247593;27;20018;-88
2024/04/14 04:48:36;;;;;;;6.68;1.48;;;;;;;15.47;52.75;100196.97;5276743;27;19998;-87
2024/04/14 04:51:04;;;;;;;5.53;1.20;;;;;;;15.42;52.04;100191.16;5277561;27;20006;-88
2024/04/14 04:53:31;;;;;;;4.90;1.30;;;;;;;15.41;52.04;100194.78;5269164;27;20006;-88
2024/04/14 04:55:59;;;;;;;4.95;1.60;;;;;;;15.36;51.99;100200.38;5277396;27;20017;-88
2024/04/14 04:58:26;;;;;;;8.65;1.25;;;;;;;15.33;51.86;100203.28;5277503;27;20006;-88
2024/04/14 05:00:57;;;;;;;4.90;1.40;;;;;;;15.25;51.37;100198.50;5275653;27;20006;-88
2024/04/14 05:03:24;;;;;;;5.60;1.60;;;;;;;15.23;51.50;100206.56;5248056;27;20041;-88
2024/04/14 05:06:04;;;;;;;4.13;1.17;;;;;;;15.16;51.20;100225.66;5249490;27;20069;-88
2024/04/14 05:11:26;;;;;;;7.68;1.17;;;;;;;15.10;51.85;100238.38;5275464;27;20053;-85
2024/04/14 05:13:53;;;;;;;6.47;1.40;;;;;;;15.07;51.62;100232.44;5277637;27;20010;-86
2024/04/14 05:16:20;;;;;;;6.80;1.60;;;;;;;15.03;51.71;100233.63;5246778;27;20086;-85
2024/04/14 05:18:46;;;;;;;4.13;1.45;;;;;;;15.00;51.95;100229.38;5247777;27;20508;-85
2024/04/14 05:21:13;;;;;;;3.35;1.13;;;;;;;15.00;52.08;100232.03;5247881;27;20006;-86
2024/04/14 05:24:03;;;;;;;6.05;1.38;;;;;;;14.96;51.68;100231.34;5247374;27;20006;-88
2024/04/14 05:26:29;;;;;;;3.97;1.20;;;;;;;15.01;51.99;100233.72;5246720;27;20347;-90
2024/04/14 05:28:56;;;;;;;4.95;1.20;;;;;;;15.01;51.79;100243.44;5248003;27;20025;-87
2024/04/14 05:31:24;;;;;;;4.85;1.38;;;;;;;15.03;52.18;100250.34;5279453;27;20013;-87
2024/04/14 05:33:51;;;;;;;6.22;1.45;;;;;;;15.04;52.01;100252.06;5250072;27;20006;-86
2024/04/14 05:36:18;;;;;;;5.28;1.20;;;;;;;15.05;51.98;100251.09;5247536;27;20010;-86
2024/04/14 05:38:47;;;;;;;4.18;1.20;;;;;;;15.06;52.13;100257.28;5276927;27;20006;-86
2024/04/14 05:41:14;;;;;;;6.55;1.30;;;;;;;15.08;52.37;100252.69;5246738;27;20034;-86
2024/04/14 05:43:42;;;;;;;6.53;1.05;;;;;;;15.08;52.17;100256.22;5247947;27;20021;-86
2024/04/14 05:46:08;;;;;;;4.95;1.40;;;;;;;15.07;52.11;100257.13;5248170;27;20361;-86
2024/04/14 05:48:35;;;;;;;4.85;1.10;;;;;;;15.07;52.23;100259.78;5277395;27;20014;-86
2024/04/14 05:51:02;;;;;;;6.47;1.55;;;;;;;15.07;52.39;100270.41;5276660;27;20030;-86
2024/04/14 05:53:29;;;;;;;7.10;1.45;;;;;;;15.07;52.62;100265.09;5246820;27;20372;-87
2024/04/14 05:55:55;;;;;;;4.60;1.23;;;;;;;15.06;52.75;100267.88;5277001;27;20014;-86
2024/04/14 05:58:22;;;;;;;4.80;1.38;;;;;;;15.08;52.61;100276.56;5248051;27;20553;-86
2024/04/14 06:00:49;;;;;;;3.90;1.40;;;;;;;15.08;52.65;100285.38;5248188;27;20341;-86
2024/04/14 06:03:16;;;;;;;6.63;1.33;;;;;;;15.07;52.36;100288.97;5248165;27;20384;-86
2024/04/14 06:05:48;;;;;;;7.15;1.45;;;;;;;15.07;52.12;100293.44;5248501;27;20006;-87
2024/04/14 06:08:15;;;;;;;6.63;1.70;;;;;;;15.08;52.04;100288.03;5248315;27;20006;-86
2024/04/14 06:10:41;;;;;;;8.77;1.75;;;;;;;15.10;51.50;100286.09;5250196;27;20081;-87
2024/04/14 06:13:09;;;;;;;7.95;1.45;;;;;;;15.08;51.36;100295.97;5244065;27;20018;-87
2024/04/14 06:15:35;;;;;;;5.47;1.33;;;;;;;15.07;51.45;100293.44;5244397;27;20003;-86
2024/04/14 06:18:02;;;;;;;6.22;1.17;;;;;;;15.05;51.23;100282.91;5250205;27;20018;-86
2024/04/14 06:20:30;;;;;;;6.38;1.42;;;;;;;15.05;51.87;100292.66;5250226;27;20039;-86
2024/04/14 06:22:57;;;;;;;9.35;1.30;;;;;;;15.07;51.62;100290.78;5249662;27;20014;-86
2024/04/14 06:25:23;;;;;;;7.78;1.42;;;;;;;15.06;51.49;100295.22;5250049;27;20006;-86
2024/04/14 06:27:50;;;;;;;6.40;1.30;;;;;;;15.08;51.58;100298.63;5280283;27;20013;-86
2024/04/14 06:30:17;;;;;;;6.22;1.58;;;;;;;15.09;51.37;100304.75;5275782;27;20033;-86
2024/04/14 06:32:44;;;;;;;9.27;1.48;;;;;;;15.11;51.64;100300.22;5239406;27;20449;-86
2024/04/14 06:35:10;;;;;;;6.85;1.35;;;;;;;15.14;51.87;100307.13;5249313;27;20093;-86
2024/04/14 06:37:37;;;;;;;4.40;1.45;;;;;;;15.17;51.68;100317.53;5249318;27;20006;-86
2024/04/14 06:40:07;;;;;;;7.10;1.80;;;;;;;15.15;51.75;100317.63;5279269;27;20003;-86
2024/04/14 06:42:33;;;;;;;7.63;1.45;;;;;;;15.16;51.55;100311.38;5252224;27;20478;-86
2024/04/14 06:45:00;;;;;;;6.97;1.50;;;;;;;15.17;51.44;100299.78;5248316;27;20346;-85
2024/04/14 06:47:27;;;;;;;5.57;1.45;;;;;;;15.18;51.35;100313.91;5275972;27;20006;-86
2024/04/14 06:49:58;;;;;;;4.30;1.67;;;;;;;15.20;51.29;100314.66;5280185;27;20480;-86
2024/04/14 06:52:25;;;;;;;8.90;1.55;;;;;;;15.22;51.77;100310.94;5249845;27;20021;-86
2024/04/14 06:54:51;;;;;;;9.00;2.10;;;;;;;15.23;51.61;100312.66;5279658;27;20105;-86
2024/04/14 06:57:18;;;;;;;9.50;1.60;;;;;;;15.30;51.62;100313.09;5249788;27;20453;-86
2024/04/14 06:59:45;;;;;;;8.25;1.98;;;;;;;15.35;51.70;100315.41;5249654;27;20018;-86
2024/04/14 07:02:11;;;;;;;10.52;1.80;;;;;;;15.38;51.32;100315.22;5279534;27;20002;-86
2024/04/14 07:04:38;;;;;;;8.50;1.77;;;;;;;15.43;51.47;100326.34;5249829;27;20006;-86
2024/04/14 07:07:05;;;;;;;8.73;1.65;;;;;;;15.49;51.40;100328.59;5280574;27;20018;-86
2024/04/14 07:09:32;;;;;;;6.47;1.67;;;;;;;15.55;51.33;100329.13;5248691;27;20035;-86
2024/04/14 07:11:59;;;;;;;9.55;1.85;;;;;;;15.60;51.17;100316.38;5279838;27;20022;-86
2024/04/14 07:14:25;;;;;;;6.72;1.52;;;;;;;15.66;51.34;100321.25;5280000;27;20022;-86
2024/04/14 07:16:52;;;;;;;7.85;1.67;;;;;;;15.70;51.07;100320.09;5277938;27;20002;-86
2024/04/14 07:19:19;;;;;;;9.85;1.85;;;;;;;15.78;51.58;100327.53;5278802;27;20338;-85
2024/04/14 07:21:45;;;;;;;8.82;1.58;;;;;;;15.84;50.65;100327.09;5249043;27;20013;-86
2024/04/14 07:24:12;;;;;;;9.90;1.80;;;;;;;15.89;50.75;100324.13;5276682;27;20006;-86
2024/04/14 07:26:39;;;;;;;8.35;1.58;;;;;;;15.94;50.48;100322.03;5279547;27;20546;-86
2024/04/14 07:29:05;;;;;;;10.00;1.70;;;;;;;15.99;50.09;100325.19;5279905;27;20476;-86
2024/04/14 07:31:32;;;;;;;10.25;1.50;;;;;;;16.04;49.96;100322.22;5249541;27;20013;-86
2024/04/14 07:34:00;;;;;;;6.75;1.50;;;;;;;16.05;50.02;100320.41;5249636;27;20022;-86
2024/04/14 07:36:28;;;;;;;4.93;1.58;;;;;;;16.08;49.61;100328.16;5249117;27;20002;-86
2024/04/14 07:38:55;;;;;;;7.60;1.60;;;;;;;16.10;49.44;100331.53;5278635;27;20332;-86
2024/04/14 07:41:21;;;;;;;8.60;2.17;;;;;;;16.11;49.34;100343.88;5279113;27;20472;-86
2024/04/14 07:43:48;;;;;;;4.25;1.63;;;;;;;16.08;49.24;100338.78;5248295;27;20022;-86
2024/04/14 07:46:15;;;;;;;7.95;1.55;;;;;;;16.10;49.23;100344.81;5277878;27;20013;-86
2024/04/14 07:48:42;;;;;;;8.30;1.88;;;;;;;16.10;49.07;100340.38;5279223;27;20010;-86
2024/04/14 07:51:09;;;;;;;4.45;1.50;;;;;;;16.08;48.99;100339.63;5248242;27;20013;-86
2024/04/14 07:53:36;;;;;;;5.60;1.58;;;;;;;16.08;48.48;100355.56;5249148;27;20014;-85
2024/04/14 07:56:03;;;;;;;5.35;1.38;;;;;;;16.07;48.94;100364.47;5250249;27;20016;-86
2024/04/14 07:58:29;;;;;;;6.93;1.55;;;;;;;16.07;48.70;100353.03;5250539;27;20006;-85
2024/04/14 08:00:56;;;;;;;7.93;2.00;;;;;;;16.07;48.88;100353.84;5279726;27;20021;-85
2024/04/14 08:03:23;;;;;;;6.43;1.60;;;;;;;16.10;48.97;100342.16;5250522;27;20087;-87
2024/04/14 08:05:50;;;;;;;4.95;1.48;;;;;;;16.16;48.93;100341.75;5279935;27;20018;-87
2024/04/14 08:08:17;;;;;;;7.53;1.50;;;;;;;16.20;49.30;100332.59;5250151;27;20006;-86
2024/04/14 08:10:47;;;;;;;8.40;1.55;;;;;;;16.25;48.62;100338.41;5251458;27;20058;-86
2024/04/14 08:13:14;;;;;;;7.18;1.38;;;;;;;16.30;48.36;100342.56;5280982;27;20002;-86
2024/04/14 08:15:40;;;;;;;8.50;1.52;;;;;;;16.32;47.67;100343.28;5251033;27;20007;-86
2024/04/14 08:18:07;;;;;;;9.52;2.15;;;;;;;16.32;47.69;100346.78;5280320;27;20425;-86
2024/04/14 08:20:34;;;;;;;6.45;1.58;;;;;;;16.32;47.94;100351.25;5249818;27;20018;-86
2024/04/14 08:23:01;;;;;;;8.93;2.28;;;;;;;16.33;48.20;100352.97;5280379;27;20002;-86
2024/04/14 08:25:27;;;;;;;8.43;1.67;;;;;;;16.35;47.74;100362.53;5250146;27;20006;-86
2024/04/14 08:27:54;;;;;;;6.45;1.25;;;;;;;16.39;47.78;100357.81;5249690;27;19998;-86
2024/04/14 08:30:23;;;;;;;6.10;1.52;;;;;;;16.44;47.09;100368.97;5280282;27;20473;-86
2024/04/14 08:32:50;;;;;;;3.75;1.27;;;;;;;16.52;47.48;100365.78;5251031;27;20013;-86
2024/04/14 08:35:17;;;;;;;4.65;1.55;;;;;;;16.60;47.55;100367.88;5250773;27;20018;-86
2024/04/14 08:37:43;;;;;;;6.15;1.33;;;;;;;16.70;46.64;100365.41;5250543;27;20013;-85
2024/04/14 08:40:11;;;;;;;5.13;1.20;;;;;;;16.79;46.91;100348.75;5278081;27;20003;-85
2024/04/14 08:42:38;;;;;;;5.88;1.30;;;;;;;16.89;46.91;100352.44;5279778;27;20015;-86
2024/04/14 08:45:06;;;;;;;4.13;1.02;;;;;;;16.96;46.11;100355.47;5250259;27;20022;-86
2024/04/14 08:47:33;;;;;;;3.45;1.08;;;;;;;17.05;45.56;100367.28;5249276;27;20085;-86
2024/04/14 08:50:03;;;;;;;2.38;1.00;;;;;;;17.09;44.56;100371.41;5249112;27;20028;-86
2024/04/14 08:52:33;;;;;;;4.50;1.45;;;;;;;17.11;44.21;100382.78;5249154;27;20002;-87
2024/04/14 08:55:00;;;;;;;3.13;1.08;;;;;;;17.15;44.43;100383.38;5249698;27;20006;-86
2024/04/14 08:57:29;;;;;;;4.60;1.10;;;;;;;17.16;44.30;100383.25;5249778;27;20034;-86
2024/04/14 08:59:58;;;;;;;6.95;1.55;;;;;;;17.15;44.02;100381.56;5249347;27;20021;-86
2024/04/14 09:02:27;;;;;;;4.05;1.00;;;;;;;17.19;44.12;100388.38;5248597;27;20464;-86
2024/04/14 09:04:56;;;;;;;7.68;1.55;;;;;;;17.21;44.09;100385.59;5236482;27;20003;-87
2024/04/14 09:07:22;;;;;;;5.15;1.00;;;;;;;17.25;43.72;100387.06;5267145;27;20463;-88
2024/04/14 09:09:50;;;;;;;6.68;1.13;;;;;;;17.32;44.20;100382.13;5278297;27;20061;-86
2024/04/14 09:12:17;;;;;;;4.45;1.25;;;;;;;17.38;43.98;100386.13;5250590;27;20034;-86
2024/04/14 09:14:47;;;;;;;4.03;1.10;;;;;;;17.43;43.34;100381.31;5249774;27;20021;-85
2024/04/14 09:17:14;;;;;;;5.15;0.90;;;;;;;17.52;43.99;100380.59;5279233;27;20021;-85
2024/04/14 09:19:43;;;;;;;4.82;1.10;;;;;;;17.56;43.69;100387.38;5248765;27;20006;-86
2024/04/14 09:22:09;;;;;;;5.43;1.30;;;;;;;17.62;43.95;100377.22;5249879;27;20042;-86
2024/04/14 09:24:36;;;;;;;4.72;1.33;;;;;;;17.66;43.68;100381.34;5249756;27;20002;-86
2024/04/14 09:27:03;;;;;;;5.10;1.08;;;;;;;17.70;42.97;100381.00;5278627;27;20003;-86
2024/04/14 09:29:30;;;;;;;3.35;1.02;;;;;;;17.75;42.74;100377.97;5249659;27;20018;-86
2024/04/14 09:31:58;;;;;;;4.45;1.17;;;;;;;17.77;43.02;100376.06;5236078;27;20006;-86
2024/04/14 09:34:27;;;;;;;6.00;1.52;;;;;;;17.80;43.30;100385.63;5282218;27;20018;-86
2024/04/14 09:36:54;;;;;;;4.90;1.42;;;;;;;17.84;43.38;100393.22;5282200;27;20352;-86
2024/04/14 09:39:21;;;;;;;7.05;1.40;;;;;;;17.89;43.45;100389.38;5252535;27;20011;-86
2024/04/14 09:41:48;;;;;;;5.72;1.48;;;;;;;17.92;43.35;100391.78;5280375;27;20408;-86
2024/04/14 09:44:16;;;;;;;4.22;1.25;;;;;;;17.96;42.95;100390.59;5278977;27;20003;-86
2024/04/14 09:46:48;;;;;;;3.27;1.20;;;;;;;17.98;43.16;100385.97;5253495;27;20018;-86
2024/04/14 09:49:16;;;;;;;5.20;1.05;;;;;;;18.02;43.19;100387.44;5252630;27;20763;-86
2024/04/14 09:51:45;;;;;;;6.22;1.30;;;;;;;18.06;42.54;100391.56;5281331;27;20010;-86
2024/04/14 09:54:14;;;;;;;4.53;1.15;;;;;;;18.12;43.30;100392.91;5251827;27;20006;-87
2024/04/14 09:56:41;;;;;;;4.75;1.30;;;;;;;18.14;43.33;100392.81;5252639;27;20018;-87
2024/04/14 09:59:07;;;;;;;5.82;1.30;;;;;;;18.16;43.29;100397.03;5251817;27;20089;-86
2024/04/14 10:01:37;;;;;;;4.47;1.50;;;;;;;18.19;42.97;100396.81;5281639;27;20376;-87
2024/04/14 10:04:06;;;;;;;7.95;1.55;;;;;;;18.26;43.09;100390.97;5252435;27;20006;-86
2024/04/14 10:06:36;;;;;;;5.00;1.50;;;;;;;18.33;42.98;100394.84;5252176;27;20010;-87
2024/04/14 10:09:03;;;;;;;3.22;1.15;;;;;;;18.40;43.31;100387.22;5252077;27;20003;-86
2024/04/14 10:11:31;;;;;;;5.40;1.55;;;;;;;18.47;43.49;100393.75;5251923;27;20015;-87
2024/04/14 10:14:00;;;;;;;5.75;1.35;;;;;;;18.54;44.04;100381.63;5282242;27;20017;-86
2024/04/14 10:16:27;;;;;;;5.05;1.42;;;;;;;18.61;44.11;100385.50;5251204;27;20007;-87
2024/04/14 10:19:03;;;;;;;4.47;1.23;;;;;;;18.68;43.15;100383.16;5277000;27;20080;-87
2024/04/14 10:21:30;;;;;;;3.70;1.35;;;;;;;18.82;43.53;100395.38;5247159;27;20085;-87
2024/04/14 10:23:57;;;;;;;14.35;1.83;;;;;;;18.89;43.04;100390.38;5276908;27;20006;-87
2024/04/14 10:26:24;;;;;;;6.95;1.65;;;;;;;18.94;42.63;100379.31;5247653;27;20814;-86
2024/04/14 10:28:55;;;;;;;3.80;1.20;;;;;;;18.96;41.66;100383.59;5274355;27;20010;-85
2024/04/14 10:31:27;;;;;;;3.47;1.33;;;;;;;19.01;42.01;100385.84;5282460;27;20077;-86
2024/04/14 10:34:19;;;;;;;4.35;1.08;;;;;;;19.05;41.81;100394.44;5252367;27;20002;-86
2024/04/14 10:36:56;;;;;;;6.30;1.55;;;;;;;19.14;42.61;100391.91;5253169;27;20014;-86
2024/04/14 10:39:24;;;;;;;6.95;1.73;;;;;;;19.28;42.60;100381.88;5252222;27;20088;-86
2024/04/14 10:41:51;;;;;;;5.15;1.40;;;;;;;19.40;42.44;100386.19;5251627;27;20054;-85
2024/04/14 10:44:19;;;;;;;5.85;1.50;;;;;;;19.55;42.15;100387.69;5252356;27;20021;-86
2024/04/14 10:46:46;;;;;;;5.25;1.55;;;;;;;19.63;41.82;100386.03;5253103;27;20006;-86
2024/04/14 10:49:14;;;;;;;4.78;1.40;;;;;;;19.66;41.60;100383.13;5252512;27;20484;-86
2024/04/14 10:51:41;;;;;;;7.22;1.40;;;;;;;19.70;41.15;100381.03;5281695;27;20003;-86
2024/04/14 10:54:08;;;;;;;5.22;1.48;;;;;;;19.73;41.02;100382.63;5252109;27;20014;-86
2024/04/14 10:56:35;;;;;;;4.38;1.45;;;;;;;19.74;40.93;100386.97;5281847;27;20006;-86
2024/04/14 10:59:02;;;;;;;6.20;1.40;;;;;;;19.81;40.84;100387.28;5252910;27;20006;-87
2024/04/14 11:01:29;;;;;;;2.95;1.08;;;;;;;19.86;40.85;100388.59;5252186;27;20046;-86
2024/04/14 11:03:57;;;;;;;6.43;1.40;;;;;;;19.93;40.95;100381.72;5252008;27;20010;-86
2024/04/14 11:06:24;;;;;;;6.80;1.45;;;;;;;20.04;40.75;100379.97;5246603;27;20019;-86
2024/04/14 11:14:17;;;;;;;3.20;1.33;;;;;;;21.05;40.16;100364.88;5311187;27;20041;-88
2024/04/14 11:16:45;;;;;;;2.95;1.42;;;;;;;21.56;41.48;100375.34;5313663;27;20342;-84
2024/04/14 11:19:17;;;;;;;6.05;1.30;;;;;;;21.96;38.69;100368.94;5283068;27;20065;-86
2024/04/14 11:21:50;;;;;;;3.28;1.33;;;;;;;22.23;37.61;100378.00;5313121;27;20353;-84
2024/04/14 11:24:17;;;;;;;4.18;1.27;;;;;;;22.35;37.61;100380.47;5282691;27;20002;-84
2024/04/14 11:26:44;;;;;;;4.15;1.20;;;;;;;22.34;37.17;100381.44;5313908;27;20006;-88
2024/04/14 11:29:11;;;;;;;3.67;1.33;;;;;;;22.31;36.38;100379.09;5314251;27;20005;-89
2024/04/14 11:31:38;;;;;;;7.97;1.45;;;;;;;22.23;37.17;100372.63;5283953;27;20457;-89
2024/04/14 11:34:07;;;;;;;2.92;1.00;;;;;;;22.16;36.17;100376.88;5283362;27;20010;-88
2024/04/14 11:36:48;;;;;;;2.97;1.15;;;;;;;22.06;36.18;100374.28;5284436;27;20013;-85
2024/04/14 11:39:18;;;;;;;4.68;1.10;;;;;;;22.07;36.19;100375.09;5282621;27;20028;-84
2024/04/14 11:41:45;;;;;;;5.65;1.38;;;;;;;22.02;36.52;100375.56;5282439;27;20013;-84
2024/04/14 11:44:15;;;;;;;4.18;1.27;;;;;;;21.91;35.56;100376.59;5276138;27;20003;-88
2024/04/14 11:46:43;;;;;;;3.75;1.48;;;;;;;21.81;35.54;100359.69;5279793;27;20016;-89
2024/04/14 11:49:10;;;;;;;2.85;1.13;;;;;;;21.69;35.57;100365.19;5313766;27;20020;-90
2024/04/14 11:51:47;;;;;;;4.25;1.13;;;;;;;21.65;36.34;100361.13;5313051;27;20516;-86
2024/04/14 11:54:33;;;;;;;5.78;1.42;;;;;;;21.89;35.94;100354.44;5209333;27;20023;-85
2024/04/14 11:57:01;;;;;;;3.55;1.20;;;;;;;22.31;38.25;100353.09;5208061;27;20008;-87
2024/04/14 11:59:27;;;;;;;4.30;1.27;;;;;;;22.80;37.93;100354.63;5208365;27;20019;-86
2024/04/14 12:01:59;;;;;;;6.35;1.35;;;;;;;23.36;37.42;100354.47;5208564;27;20018;-87
2024/04/14 12:04:26;;;;;;;5.30;1.23;;;;;;;23.89;36.66;100353.59;5289049;27;20338;-86
2024/04/14 12:06:53;;;;;;;2.83;1.08;;;;;;;24.33;35.51;100350.78;5282892;27;20714;-86
2024/04/14 12:09:20;;;;;;;3.25;1.30;;;;;;;24.73;34.90;100345.66;5312694;27;20042;-87
2024/04/14 12:11:47;;;;;;;3.92;1.23;;;;;;;25.00;34.20;100345.53;5282084;27;20016;-87
2024/04/14 12:14:14;;;;;;;3.30;1.13;;;;;;;25.20;34.42;100339.81;5312181;26;20001;-87
2024/04/14 12:16:41;;;;;;;4.70;1.15;;;;;;;25.45;34.55;100337.91;5312789;27;20009;-85
2024/04/14 12:19:08;;;;;;;3.20;1.20;;;;;;;25.78;34.42;100337.00;5312974;27;20473;-85
2024/04/14 12:21:35;;;;;;;3.42;1.10;;;;;;;26.15;33.80;100346.31;5310048;27;20408;-86
2024/04/14 12:24:01;;;;;;;3.78;1.40;;;;;;;26.50;32.46;100347.88;5312762;27;20079;-85
2024/04/14 12:26:30;;;;;;;4.40;1.55;;;;;;;26.70;32.12;100340.13;5312578;27;20013;-85
2024/04/14 12:28:58;;;;;;;6.55;1.73;;;;;;;26.80;31.21;100331.78;5312089;27;20002;-85
2024/04/14 12:31:27;;;;;;;3.25;1.23;;;;;;;26.96;32.27;100330.00;5282233;27;20462;-85
2024/04/14 12:33:54;;;;;;;7.38;1.27;;;;;;;27.19;32.34;100329.97;5312028;27;20017;-85
2024/04/14 12:36:21;;;;;;;4.07;1.35;;;;;;;27.47;31.73;100328.50;5312360;27;20446;-85
2024/04/14 12:38:48;;;;;;;9.55;1.77;;;;;;;27.77;32.76;100312.31;5312083;27;20025;-86
2024/04/14 12:41:15;;;;;;;3.28;1.35;;;;;;;28.06;30.72;100311.44;5268017;27;20481;-85
2024/04/14 12:43:42;;;;;;;5.35;1.40;;;;;;;28.23;29.75;100312.03;5282322;27;20010;-85
2024/04/14 12:46:09;;;;;;;3.40;1.02;;;;;;;28.33;29.64;100300.94;5282099;27;20021;-86
2024/04/14 12:48:36;;;;;;;4.32;1.33;;;;;;;28.43;29.56;100310.59;5281959;27;20402;-85
2024/04/14 12:51:02;;;;;;;3.33;1.38;;;;;;;28.49;29.35;100299.84;5281953;27;20002;-85
2024/04/14 12:53:29;;;;;;;3.33;1.20;;;;;;;28.53;28.17;100308.44;5282154;27;20002;-86
2024/04/14 12:55:56;;;;;;;7.43;1.70;;;;;;;28.58;27.17;100305.97;5312412;27;20017;-86
2024/04/14 12:58:22;;;;;;;2.78;1.27;;;;;;;28.61;27.90;100291.22;5281968;27;20013;-86
2024/04/14 13:00:50;;;;;;;5.22;1.50;;;;;;;28.65;27.66;100286.25;5281800;27;20088;-87
2024/04/14 13:03:17;;;;;;;4.10;1.38;;;;;;;28.61;27.43;100283.94;5312009;27;20446;-86
2024/04/14 13:05:49;;;;;;;3.20;1.35;;;;;;;28.62;27.11;100287.47;5312221;27;20385;-87
2024/04/14 13:08:16;;;;;;;4.28;1.60;;;;;;;28.69;28.23;100274.84;5282820;27;20088;-89
2024/04/14 13:10:43;;;;;;;3.75;1.10;;;;;;;28.74;27.68;100283.22;5285445;27;20010;-88
2024/04/14 13:13:16;;;;;;;3.90;1.33;;;;;;;28.78;26.29;100286.34;5315221;27;20023;-88
2024/04/14 13:15:45;;;;;;;4.45;1.15;;;;;;;28.86;27.61;100285.41;5295867;27;20016;-87
2024/04/14 13:18:12;;;;;;;3.65;1.15;;;;;;;28.88;26.94;100286.03;5315180;27;20020;-88
2024/04/14 13:20:41;;;;;;;5.22;1.60;;;;;;;28.89;26.62;100276.84;5284859;27;20005;-87
2024/04/14 13:23:07;;;;;;;5.57;1.52;;;;;;;29.02;27.95;100275.31;5285320;27;20064;-88
2024/04/14 13:25:34;;;;;;;2.78;1.27;;;;;;;29.17;27.54;100267.94;5315113;27;20450;-87
2024/04/14 13:28:01;;;;;;;3.38;1.25;;;;;;;29.34;27.26;100271.16;5316102;27;20025;-87
2024/04/14 13:30:28;;;;;;;5.88;1.40;;;;;;;29.47;26.87;100262.28;5314499;27;20021;-87
2024/04/14 13:32:57;;;;;;;4.65;1.75;;;;;;;29.50;26.84;100272.72;5314643;27;20084;-88
2024/04/14 13:35:24;;;;;;;3.63;1.40;;;;;;;29.62;26.67;100266.75;5315188;27;20010;-87
2024/04/14 13:37:50;;;;;;;4.07;1.45;;;;;;;29.73;26.65;100257.19;5314672;27;20020;-87
2024/04/14 13:40:19;;;;;;;3.80;1.25;;;;;;;29.83;26.50;100257.66;5314543;27;20002;-87
2024/04/14 13:42:46;;;;;;;4.70;1.50;;;;;;;29.96;26.96;100254.16;5314711;27;20145;-88
2024/04/14 13:45:13;;;;;;;3.45;1.10;;;;;;;30.11;26.35;100255.84;5314938;27;20013;-87
2024/04/14 13:47:40;;;;;;;3.60;1.17;;;;;;;30.25;26.06;100254.88;5284952;27;20005;-87
2024/04/14 13:50:06;;;;;;;2.47;1.10;;;;;;;30.40;26.59;100245.72;5284121;27;20042;-88
2024/04/14 13:52:36;;;;;;;6.65;1.15;;;;;;;30.55;25.71;100234.66;5315014;27;20002;-87
2024/04/14 13:55:03;;;;;;;4.60;1.48;;;;;;;30.50;24.32;100248.03;5284503;27;20012;-88
2024/04/14 13:57:31;;;;;;;4.45;1.48;;;;;;;30.24;24.20;100245.03;5285227;27;20707;-88
2024/04/14 14:00:21;;;;;;;3.33;1.50;;;;;;;29.84;24.72;100239.50;5314803;27;20017;-88
2024/04/14 14:02:48;;;;;;;4.97;1.58;;;;;;;29.71;24.65;100227.56;5314680;27;20323;-90
2024/04/14 14:05:14;;;;;;;4.15;1.38;;;;;;;29.68;24.86;100227.13;5314613;27;20088;-88
2024/04/14 14:07:42;;;;;;;4.05;1.20;;;;;;;29.73;24.60;100230.91;5314558;27;20439;-88
2024/04/14 14:10:09;;;;;;;3.90;1.23;;;;;;;29.84;24.72;100229.50;5284589;27;20013;-88
2024/04/14 14:12:45;;;;;;;4.00;1.25;;;;;;;29.81;24.44;100229.03;5314635;27;20014;-86
2024/04/14 14:15:19;;;;;;;3.17;1.45;;;;;;;29.69;23.95;100226.94;5314216;27;20013;-86
2024/04/14 14:17:46;;;;;;;4.05;1.42;;;;;;;29.53;24.43;100225.41;5284189;27;20002;-86
2024/04/14 14:20:15;;;;;;;9.98;1.13;;;;;;;29.31;23.71;100219.22;5313527;27;20001;-87
2024/04/14 14:22:45;;;;;;;5.20;1.20;;;;;;;29.16;23.52;100209.34;5314021;27;20006;-86
2024/04/14 14:25:11;;;;;;;4.65;1.50;;;;;;;29.12;24.34;100195.34;5284518;27;20006;-86
2024/04/14 14:27:38;;;;;;;4.70;1.33;;;;;;;29.10;24.50;100202.84;5314167;27;20323;-86
2024/04/14 14:30:05;;;;;;;3.22;1.42;;;;;;;29.15;24.54;100207.66;5313583;27;20001;-86
2024/04/14 14:32:33;;;;;;;3.20;1.17;;;;;;;29.29;25.23;100215.88;5313877;27;20375;-85
2024/04/14 14:37:53;;;;;;;4.45;1.20;;;;;;;29.74;24.24;100207.31;5314098;27;20021;-86
2024/04/14 14:40:20;;;;;;;2.88;1.00;;;;;;;29.98;24.48;100195.06;5313820;27;20005;-86
2024/04/14 14:42:47;;;;;;;4.60;1.33;;;;;;;30.11;24.07;100207.00;5313810;27;20005;-86
2024/04/14 14:45:16;;;;;;;2.95;1.05;;;;;;;30.12;23.37;100201.38;5313940;27;20024;-87
2024/04/14 14:47:43;;;;;;;2.95;1.08;;;;;;;30.14;23.54;100204.75;5314065;27;20021;-87
2024/04/14 14:50:18;;;;;;;4.90;1.10;;;;;;;30.08;22.71;100210.94;5314017;27;20086;-87
2024/04/14 14:52:44;;;;;;;3.03;1.00;;;;;;;30.10;23.66;100205.31;5313626;27;20012;-86
2024/04/14 14:55:11;;;;;;;2.67;1.00;;;;;;;30.13;23.66;100210.38;5283889;27;20005;-87
2024/04/14 14:57:44;;;;;;;4.72;1.17;;;;;;;30.08;23.08;100210.13;5313919;27;20001;-86
2024/04/14 15:00:12;;;;;;;2.88;0.80;;;;;;;30.04;23.03;100206.97;5284034;27;20446;-87
2024/04/14 15:02:39;;;;;;;3.50;1.20;;;;;;;29.97;23.38;100209.69;5314077;27;20577;-87
2024/04/14 15:05:14;;;;;;;4.13;1.25;;;;;;;29.78;22.65;100217.56;5313635;27;20005;-88
2024/04/14 15:07:41;;;;;;;4.88;1.25;;;;;;;29.62;22.78;100207.06;5283826;27;20010;-87
2024/04/14 15:10:11;;;;;;;5.13;1.40;;;;;;;29.34;22.21;100199.84;5313535;27;20001;-87
2024/04/14 17:14:47;;;;;;;4.22;1.08;;;;;;;19.84;30.17;100125.25;5278476;27;20488;-87
2024/04/14 17:17:16;;;;;;;6.18;1.50;;;;;;;19.74;30.11;100125.22;5278190;27;20003;-87
2024/04/14 17:19:43;;;;;;;6.55;1.25;;;;;;;19.64;30.29;100118.03;5249878;27;20010;-87
2024/04/14 17:22:10;;;;;;;4.57;1.27;;;;;;;19.53;30.46;100121.69;5278900;27;20006;-87
2024/04/14 17:24:37;;;;;;;5.00;1.15;;;;;;;19.43;30.31;100120.78;5250910;27;20053;-87
2024/04/14 17:27:04;;;;;;;4.10;1.27;;;;;;;19.33;30.90;100117.25;5280511;27;20014;-87